createdAt,value
2022-10-04T00:02:01.280Z,17.89
2022-10-04T00:04:43.986Z,17.97
2022-10-04T00:07:24.586Z,17.82
2022-10-04T00:10:01.880Z,17.88
2022-10-04T00:12:39.671Z,17.90
2022-10-04T00:15:22.996Z,17.85
2022-10-04T00:18:07.356Z,17.82
2022-10-04T00:21:04.037Z,17.84
2022-10-04T00:23:50.283Z,17.88
2022-10-04T00:27:09.369Z,17.88
2022-10-04T00:29:43.746Z,17.81
2022-10-04T00:32:29.936Z,17.72
2022-10-04T00:35:03.453Z,17.77
2022-10-04T00:38:00.504Z,17.74
2022-10-04T00:40:37.882Z,17.61
2022-10-04T00:43:17.141Z,17.61
2022-10-04T00:45:56.623Z,17.69
2022-10-04T00:48:37.432Z,17.66
2022-10-04T00:51:26.553Z,17.54
2022-10-04T00:54:09.267Z,17.53
2022-10-04T00:56:49.027Z,17.73
2022-10-04T00:59:35.442Z,17.70
2022-10-04T01:02:17.974Z,17.82
2022-10-04T01:04:56.234Z,17.76
2022-10-04T01:07:35.764Z,17.78
2022-10-04T01:10:14.785Z,17.78
2022-10-04T01:12:54.110Z,17.81
2022-10-04T01:15:35.936Z,17.71
2022-10-04T01:18:15.706Z,17.83
2022-10-04T01:20:56.753Z,17.75
2022-10-04T01:23:38.018Z,17.79
2022-10-04T01:26:37.733Z,17.68
2022-10-04T01:29:15.466Z,17.80
2022-10-04T01:31:49.930Z,17.64
2022-10-04T01:34:24.988Z,17.72
2022-10-04T01:37:00.959Z,17.80
2022-10-04T01:39:36.196Z,17.75
2022-10-04T01:42:14.241Z,17.82
2022-10-04T01:44:52.659Z,17.89
2022-10-04T01:47:31.380Z,17.89
2022-10-04T01:50:14.965Z,17.99
2022-10-04T01:52:53.178Z,18.03
2022-10-04T01:55:32.117Z,17.96
2022-10-04T01:58:12.406Z,17.83
2022-10-04T02:00:53.236Z,17.90
2022-10-04T02:03:33.752Z,17.76
2022-10-04T02:06:10.872Z,17.73
2022-10-04T02:08:50.942Z,17.91
2022-10-04T02:11:31.591Z,18.09
2022-10-04T02:14:05.848Z,18.14
2022-10-04T02:16:40.885Z,18.23
2022-10-04T02:19:16.073Z,18.28
2022-10-04T02:21:51.609Z,18.31
2022-10-04T02:24:25.957Z,18.27
2022-10-04T02:27:01.280Z,18.19
2022-10-04T02:29:34.336Z,18.31
2022-10-04T02:32:27.523Z,18.28
2022-10-04T02:35:01.206Z,18.06
2022-10-04T02:37:35.450Z,18.07
2022-10-04T02:40:13.960Z,18.10
2022-10-04T02:42:57.792Z,18.22
2022-10-04T02:45:41.623Z,18.15
2022-10-04T02:48:36.097Z,18.03
2022-10-04T02:51:21.054Z,18.17
2022-10-04T02:54:05.312Z,18.17
2022-10-04T02:56:40.421Z,18.14
2022-10-04T02:59:18.371Z,18.30
2022-10-04T03:01:55.055Z,18.29
2022-10-04T03:04:32.047Z,18.26
2022-10-04T03:07:09.748Z,18.27
2022-10-04T03:09:43.993Z,18.32
2022-10-04T03:12:17.929Z,18.18
2022-10-04T03:14:54.702Z,18.15
2022-10-04T03:17:28.528Z,18.07
2022-10-04T03:20:03.246Z,18.11
2022-10-04T03:22:36.856Z,18.13
2022-10-04T03:25:16.929Z,18.14
2022-10-04T03:27:53.179Z,18.15
2022-10-04T03:30:27.562Z,18.15
2022-10-04T03:33:01.689Z,18.19
2022-10-04T03:35:39.144Z,18.11
2022-10-04T03:38:14.534Z,18.13
2022-10-04T03:40:53.341Z,17.92
2022-10-04T03:43:31.946Z,18.13
2022-10-04T03:46:10.139Z,18.12
2022-10-04T03:48:49.624Z,18.30
2022-10-04T03:51:25.087Z,18.20
2022-10-04T03:54:01.247Z,18.36
2022-10-04T03:56:37.880Z,18.29
2022-10-04T03:59:18.282Z,18.20
2022-10-04T04:02:04.703Z,18.31
2022-10-04T04:04:44.803Z,18.40
2022-10-04T04:07:25.567Z,18.36
2022-10-04T04:10:07.371Z,18.15
2022-10-04T04:12:44.283Z,18.22
2022-10-04T04:15:18.459Z,18.18
2022-10-04T04:17:55.434Z,18.24
2022-10-04T04:20:32.668Z,18.26
2022-10-04T04:23:13.911Z,18.33
2022-10-04T04:25:50.207Z,18.26
2022-10-04T04:28:28.489Z,18.26
2022-10-04T04:31:06.464Z,18.34
2022-10-04T04:33:46.599Z,18.31
2022-10-04T04:36:20.195Z,18.32
2022-10-04T04:39:11.350Z,18.35
2022-10-04T04:41:50.175Z,18.36
2022-10-04T04:44:25.071Z,18.39
2022-10-04T04:47:00.615Z,18.32
2022-10-04T04:49:40.517Z,18.36
2022-10-04T04:52:18.672Z,18.33
2022-10-04T04:54:53.606Z,18.27
2022-10-04T04:57:27.740Z,18.15
2022-10-04T05:00:03.706Z,18.09
2022-10-04T05:02:39.256Z,18.08
2022-10-04T05:05:24.103Z,18.18
2022-10-04T05:08:15.873Z,18.29
2022-10-04T05:10:55.835Z,18.26
2022-10-04T05:13:37.472Z,18.22
2022-10-04T05:16:15.653Z,18.26
2022-10-04T05:18:50.406Z,18.21
2022-10-04T05:21:29.314Z,18.19
2022-10-04T05:24:13.363Z,18.24
2022-10-04T05:26:51.053Z,18.16
2022-10-04T05:29:28.407Z,18.17
2022-10-04T05:32:13.683Z,18.20
2022-10-04T05:34:51.557Z,18.21
2022-10-04T05:37:42.805Z,18.15
2022-10-04T05:40:39.280Z,18.22
2022-10-04T05:43:23.627Z,18.26
2022-10-04T05:46:26.783Z,18.14
2022-10-04T05:49:06.838Z,18.15
2022-10-04T05:51:51.391Z,18.16
2022-10-04T05:54:31.422Z,18.19
2022-10-04T05:57:33.952Z,18.06
2022-10-04T06:00:15.930Z,18.14
2022-10-04T06:03:20.609Z,18.05
2022-10-04T06:05:57.813Z,18.06
2022-10-04T06:08:45.268Z,18.00
2022-10-04T06:11:34.681Z,18.12
2022-10-04T06:14:52.929Z,18.12
2022-10-04T06:17:53.353Z,18.21
2022-10-04T06:20:50.428Z,18.17
2022-10-04T06:23:27.106Z,18.32
2022-10-04T06:26:05.559Z,18.29
2022-10-04T06:28:44.809Z,18.26
2022-10-04T06:31:54.320Z,18.28
2022-10-04T06:35:11.708Z,18.20
2022-10-04T06:38:09.033Z,18.24
2022-10-04T06:41:02.434Z,18.39
2022-10-04T06:43:51.961Z,18.14
2022-10-04T06:46:32.873Z,18.22
2022-10-04T06:49:38.633Z,17.96
2022-10-04T06:52:27.935Z,18.21
2022-10-04T06:55:21.189Z,18.02
2022-10-04T06:58:23.274Z,18.16
2022-10-04T07:01:04.855Z,18.37
2022-10-04T07:03:51.387Z,18.27
2022-10-04T07:06:29.341Z,18.46
2022-10-04T07:09:08.359Z,18.26
2022-10-04T07:11:50.528Z,18.45
2022-10-04T07:14:31.392Z,18.45
2022-10-04T07:17:13.317Z,18.39
2022-10-04T07:19:49.364Z,18.40
2022-10-04T07:22:27.312Z,18.41
2022-10-04T07:25:15.173Z,18.46
2022-10-04T07:28:16.146Z,18.40
2022-10-04T07:30:56.039Z,18.38
2022-10-04T07:33:34.769Z,18.39
2022-10-04T07:36:12.548Z,18.48
2022-10-04T07:38:49.928Z,19.08
2022-10-04T07:41:30.337Z,19.74
2022-10-04T07:44:06.067Z,20.12
2022-10-04T07:46:50.340Z,19.99
2022-10-04T07:49:26.884Z,19.69
2022-10-04T07:52:34.507Z,19.31
2022-10-04T07:55:19.973Z,19.12
2022-10-04T07:58:11.394Z,18.83
2022-10-04T08:00:52.315Z,18.86
2022-10-04T08:03:47.556Z,19.05
2022-10-04T08:10:15.809Z,19.48
2022-10-04T08:12:54.833Z,19.53
2022-10-04T08:15:39.020Z,20.18
2022-10-04T08:18:34.651Z,20.52
2022-10-04T08:21:10.815Z,20.89
2022-10-04T08:24:06.231Z,20.50
2022-10-04T08:26:57.910Z,20.39
2022-10-04T08:29:48.565Z,20.47
2022-10-04T08:32:46.492Z,20.63
2022-10-04T08:35:33.969Z,20.77
2022-10-04T08:38:37.563Z,21.10
2022-10-04T08:41:56.393Z,20.91
2022-10-04T08:45:18.511Z,20.86
2022-10-04T08:48:30.376Z,20.24
2022-10-04T08:51:42.885Z,20.31
2022-10-04T08:54:57.047Z,19.95
2022-10-04T08:58:07.395Z,19.84
2022-10-04T09:00:56.796Z,19.85
2022-10-04T09:04:04.167Z,19.70
2022-10-04T09:06:47.524Z,19.45
2022-10-04T09:09:59.486Z,19.40
2022-10-04T09:12:56.930Z,19.29
2022-10-04T09:15:56.657Z,19.33
2022-10-04T09:18:51.070Z,19.38
2022-10-04T09:22:01.735Z,19.23
2022-10-04T09:25:10.137Z,19.08
2022-10-04T09:28:00.239Z,19.26
2022-10-04T09:30:46.493Z,19.23
2022-10-04T09:33:41.658Z,19.28
2022-10-04T09:36:40.582Z,19.40
2022-10-04T09:39:47.934Z,19.45
2022-10-04T09:42:45.815Z,19.51
2022-10-04T09:45:37.110Z,19.59
2022-10-04T09:48:31.265Z,19.62
2022-10-04T09:52:02.337Z,19.56
2022-10-04T09:54:59.319Z,19.60
2022-10-04T09:57:50.061Z,19.32
2022-10-04T10:00:25.462Z,19.56
2022-10-04T10:03:41.963Z,19.48
2022-10-04T10:06:36.432Z,19.34
2022-10-04T10:09:20.085Z,19.43
2022-10-04T10:12:21.815Z,19.51
2022-10-04T10:15:08.964Z,19.41
2022-10-04T10:17:51.283Z,19.41
2022-10-04T10:21:05.403Z,19.45
2022-10-04T10:24:03.267Z,19.74
2022-10-04T10:27:02.341Z,19.75
2022-10-04T10:30:03.491Z,19.48
2022-10-04T10:33:27.154Z,19.63
2022-10-04T10:36:23.480Z,19.60
2022-10-04T10:39:19.211Z,19.84
2022-10-04T10:42:16.887Z,19.82
2022-10-04T10:45:06.012Z,19.69
2022-10-04T10:47:50.172Z,20.00
2022-10-04T10:51:00.135Z,19.85
2022-10-04T10:54:15.070Z,20.00
2022-10-04T10:57:07.438Z,20.16
2022-10-04T11:00:02.570Z,20.28
2022-10-04T11:03:13.615Z,20.34
2022-10-04T11:06:15.089Z,20.46
2022-10-04T11:09:14.773Z,20.32
2022-10-04T11:12:21.075Z,20.15
2022-10-04T11:15:28.072Z,20.18
2022-10-04T11:18:33.565Z,20.27
2022-10-04T11:21:31.118Z,20.37
2022-10-04T11:24:44.642Z,20.21
2022-10-04T11:27:35.433Z,20.35
2022-10-04T11:30:23.371Z,20.51
2022-10-04T11:33:39.465Z,20.56
2022-10-04T11:36:39.117Z,20.69
2022-10-04T11:39:36.391Z,20.67
2022-10-04T11:42:24.670Z,20.64
2022-10-04T11:45:22.505Z,20.55
2022-10-04T11:48:11.550Z,20.71
2022-10-04T11:51:04.176Z,20.88
2022-10-04T11:54:13.591Z,20.75
2022-10-04T11:57:07.355Z,20.81
2022-10-04T11:59:51.283Z,20.83
2022-10-04T12:02:55.451Z,20.91
2022-10-04T12:05:49.984Z,20.97
2022-10-04T12:08:39.597Z,20.80
2022-10-04T12:12:04.123Z,20.77
2022-10-04T12:14:51.861Z,20.75
2022-10-04T12:18:05.457Z,20.78
2022-10-04T12:21:29.184Z,20.76
2022-10-04T12:24:21.262Z,20.74
2022-10-04T12:27:17.282Z,20.98
2022-10-04T12:30:11.925Z,20.84
2022-10-04T12:32:58.183Z,21.03
2022-10-04T12:35:43.639Z,20.93
2022-10-04T12:38:45.753Z,21.01
2022-10-04T12:41:31.313Z,21.04
2022-10-04T12:44:21.298Z,21.09
2022-10-04T12:47:11.098Z,20.90
2022-10-04T12:49:51.127Z,20.80
2022-10-04T12:52:27.825Z,20.60
2022-10-04T12:55:11.621Z,20.80
2022-10-04T12:57:53.578Z,20.72
2022-10-04T13:00:33.775Z,20.62
2022-10-04T13:03:30.164Z,20.76
2022-10-04T13:06:22.232Z,20.84
2022-10-04T13:09:07.232Z,20.70
2022-10-04T13:12:00.513Z,20.82
2022-10-04T13:14:51.095Z,20.91
2022-10-04T13:17:39.688Z,21.00
2022-10-04T13:20:32.885Z,21.01
2022-10-04T13:23:16.751Z,20.97
2022-10-04T13:26:15.515Z,20.85
2022-10-04T13:28:57.059Z,20.90
2022-10-04T13:31:37.459Z,20.61
2022-10-04T13:34:23.437Z,20.46
2022-10-04T13:37:17.990Z,20.32
2022-10-04T13:40:09.431Z,20.20
2022-10-04T13:43:08.326Z,20.05
2022-10-04T13:45:58.038Z,19.84
2022-10-04T13:48:42.202Z,19.77
2022-10-04T13:51:40.513Z,20.03
2022-10-04T13:54:44.360Z,19.97
2022-10-04T13:57:28.682Z,19.99
2022-10-04T14:00:05.448Z,19.92
2022-10-04T14:03:09.257Z,20.04
2022-10-04T14:06:33.340Z,19.65
2022-10-04T14:09:50.008Z,19.77
2022-10-04T14:13:07.599Z,19.96
2022-10-04T14:16:18.251Z,19.98
2022-10-04T14:19:25.304Z,19.88
2022-10-04T14:22:31.569Z,19.85
2022-10-04T14:25:44.452Z,19.98
2022-10-04T14:28:53.747Z,20.12
2022-10-04T14:31:53.796Z,20.18
2022-10-04T14:34:55.616Z,20.21
2022-10-04T14:37:54.398Z,20.15
2022-10-04T14:40:52.651Z,20.07
2022-10-04T14:44:13.183Z,19.80
2022-10-04T14:47:02.305Z,19.64
2022-10-04T14:50:04.152Z,19.73
2022-10-04T14:52:52.357Z,19.56
2022-10-04T14:55:50.051Z,19.60
2022-10-04T14:58:36.526Z,19.56
2022-10-04T15:01:20.671Z,19.31
2022-10-04T15:04:29.702Z,19.38
2022-10-04T15:07:16.815Z,19.47
2022-10-04T15:09:58.864Z,19.31
2022-10-04T15:13:12.603Z,19.27
2022-10-04T15:16:13.709Z,19.36
2022-10-04T15:18:53.873Z,19.39
2022-10-04T15:21:48.712Z,19.39
2022-10-04T15:24:28.189Z,19.37
2022-10-04T15:27:36.972Z,19.40
2022-10-04T15:30:24.541Z,19.27
2022-10-04T15:33:19.663Z,19.40
2022-10-04T15:36:17.300Z,19.40
2022-10-04T15:39:02.614Z,19.43
2022-10-04T15:41:44.748Z,19.44
2022-10-04T15:44:45.236Z,19.43
2022-10-04T15:47:25.357Z,19.26
2022-10-04T15:50:23.899Z,19.32
2022-10-04T15:53:20.202Z,19.29
2022-10-04T15:56:13.201Z,19.29
2022-10-04T15:59:28.519Z,19.29
2022-10-04T16:02:26.248Z,19.25
2022-10-04T16:05:15.014Z,19.31
2022-10-04T16:08:21.738Z,19.37
2022-10-04T16:11:10.081Z,19.32
2022-10-04T16:14:23.787Z,19.43
2022-10-04T16:17:28.604Z,19.52
2022-10-04T16:20:34.746Z,19.33
2022-10-04T16:23:30.027Z,19.33
2022-10-04T16:26:08.238Z,19.54
2022-10-04T16:29:04.815Z,19.49
2022-10-04T16:32:01.677Z,19.42
2022-10-04T16:34:48.045Z,19.60
2022-10-04T16:37:37.311Z,19.43
2022-10-04T16:40:32.396Z,19.42
2022-10-04T16:43:14.193Z,19.40
2022-10-04T16:46:06.251Z,19.39
2022-10-04T16:48:50.399Z,19.47
2022-10-04T16:51:52.552Z,19.44
2022-10-04T16:54:58.537Z,19.42
2022-10-04T16:57:32.080Z,19.61
2022-10-04T17:00:38.889Z,19.49
2022-10-04T17:03:24.218Z,19.36
2022-10-04T17:06:14.170Z,19.58
2022-10-04T17:09:03.728Z,19.69
2022-10-04T17:11:46.556Z,19.66
2022-10-04T17:14:57.584Z,19.78
2022-10-04T17:17:45.488Z,19.78
2022-10-04T17:20:29.880Z,19.67
2022-10-04T17:23:19.426Z,19.74
2022-10-04T17:26:08.281Z,19.59
2022-10-04T17:28:51.991Z,19.46
2022-10-04T17:31:31.098Z,19.74
2022-10-04T17:34:14.953Z,19.72
2022-10-04T17:36:54.844Z,19.93
2022-10-04T17:39:45.728Z,19.92
2022-10-04T17:42:37.626Z,19.91
2022-10-04T17:45:36.285Z,19.86
2022-10-04T17:48:29.567Z,19.83
2022-10-04T17:51:29.105Z,19.72
2022-10-04T17:54:30.094Z,19.81
2022-10-04T17:57:23.428Z,19.90
2022-10-04T18:00:09.315Z,19.86
2022-10-04T18:03:01.804Z,19.80
2022-10-04T18:05:47.084Z,19.87
2022-10-04T18:08:31.013Z,19.91
2022-10-04T18:11:15.866Z,19.68
2022-10-04T18:13:57.347Z,19.65
2022-10-04T18:16:32.798Z,19.86
2022-10-04T18:19:33.726Z,19.92
2022-10-04T18:22:14.929Z,19.85
2022-10-04T18:25:03.235Z,19.80
2022-10-04T18:27:50.539Z,19.79
2022-10-04T18:30:24.264Z,19.89
2022-10-04T18:32:58.637Z,19.85
2022-10-04T18:35:34.243Z,20.01
2022-10-04T18:38:23.788Z,19.96
2022-10-04T18:41:02.416Z,20.00
2022-10-04T18:43:42.465Z,20.00
2022-10-04T18:46:21.505Z,20.05
2022-10-04T18:48:56.741Z,20.05
2022-10-04T18:51:38.245Z,19.87
2022-10-04T18:54:25.588Z,19.94
2022-10-04T18:57:12.229Z,19.82
2022-10-04T19:00:10.074Z,20.11
2022-10-04T19:02:52.771Z,19.88
2022-10-04T19:05:33.108Z,20.04
2022-10-04T19:08:20.054Z,20.05
2022-10-04T19:11:01.089Z,19.83
2022-10-04T19:13:46.274Z,20.06
2022-10-04T19:16:35.195Z,19.95
2022-10-04T19:19:29.040Z,19.93
2022-10-04T19:22:04.671Z,19.74
2022-10-04T19:25:07.926Z,20.06
2022-10-04T19:27:45.356Z,19.86
2022-10-04T19:30:22.289Z,19.71
2022-10-04T19:33:02.713Z,19.83
2022-10-04T19:35:56.548Z,19.77
2022-10-04T19:38:42.086Z,19.85
2022-10-04T19:41:28.569Z,19.77
2022-10-04T19:44:14.323Z,19.76
2022-10-04T19:46:57.545Z,19.63
2022-10-04T19:49:41.925Z,19.69
2022-10-04T19:52:25.435Z,19.69
2022-10-04T19:55:19.207Z,19.68
2022-10-04T19:57:58.569Z,19.56
2022-10-04T20:00:33.374Z,19.54
2022-10-04T20:03:14.429Z,19.53
2022-10-04T20:05:49.152Z,19.74
2022-10-04T20:08:49.639Z,19.60
2022-10-04T20:11:27.961Z,19.69
2022-10-04T20:14:54.622Z,19.65
2022-10-04T20:17:34.487Z,19.61
2022-10-04T20:20:09.877Z,19.48
2022-10-04T20:22:58.870Z,19.41
2022-10-04T20:26:01.931Z,19.52
2022-10-04T20:28:44.320Z,19.55
2022-10-04T20:31:58.996Z,19.42
2022-10-04T20:34:35.714Z,19.45
2022-10-04T20:37:10.889Z,19.43
2022-10-04T20:40:02.437Z,19.60
2022-10-04T20:42:39.899Z,19.53
2022-10-04T20:45:24.563Z,19.58
2022-10-04T20:47:59.413Z,19.67
2022-10-04T20:50:36.718Z,19.65
2022-10-04T20:53:20.678Z,19.58
2022-10-04T20:56:12.106Z,19.52
2022-10-04T20:58:52.109Z,19.51
2022-10-04T21:01:44.101Z,19.49
2022-10-04T21:04:30.267Z,19.30
2022-10-04T21:07:05.769Z,19.38
2022-10-04T21:09:41.568Z,19.54
2022-10-04T21:12:30.518Z,19.46
2022-10-04T21:15:07.013Z,19.44
2022-10-04T21:17:40.582Z,19.49
2022-10-04T21:20:16.505Z,19.32
2022-10-04T21:22:53.352Z,19.56
2022-10-04T21:25:37.321Z,19.50
2022-10-04T21:28:33.383Z,19.54
2022-10-04T21:31:07.820Z,19.50
2022-10-04T21:33:41.419Z,19.60
2022-10-04T21:36:14.747Z,19.51
2022-10-04T21:38:48.646Z,19.39
2022-10-04T21:41:24.049Z,19.52
2022-10-04T21:43:57.758Z,19.41
2022-10-04T21:46:30.772Z,19.25
2022-10-04T21:49:03.889Z,19.42
2022-10-04T21:51:38.133Z,19.65
2022-10-04T21:54:11.252Z,19.59
2022-10-04T21:56:46.454Z,19.42
2022-10-04T21:59:20.306Z,19.48
2022-10-04T22:01:54.356Z,19.52
2022-10-04T22:04:27.845Z,19.59
2022-10-04T22:07:01.599Z,19.54
2022-10-04T22:09:37.663Z,19.66
2022-10-04T22:12:11.810Z,19.73
2022-10-04T22:14:44.594Z,19.69
2022-10-04T22:17:17.637Z,19.79
2022-10-04T22:19:53.165Z,19.63
2022-10-04T22:22:26.912Z,19.64
2022-10-04T22:25:01.698Z,19.61
2022-10-04T22:27:36.790Z,19.64
2022-10-04T22:30:21.522Z,19.65
2022-10-04T22:32:57.543Z,19.44
2022-10-04T22:35:33.772Z,19.63
2022-10-04T22:38:09.983Z,19.56
2022-10-04T22:40:43.601Z,19.47
2022-10-04T22:43:18.713Z,19.52
2022-10-04T22:45:53.210Z,19.33
2022-10-04T22:48:28.972Z,19.43
2022-10-04T22:51:02.446Z,19.63
2022-10-04T22:53:36.421Z,19.51
2022-10-04T22:56:09.955Z,19.31
2022-10-04T22:58:45.196Z,19.36
2022-10-04T23:01:19.891Z,19.26
2022-10-04T23:03:54.197Z,19.24
2022-10-04T23:06:27.848Z,19.04
2022-10-04T23:09:01.897Z,18.94
2022-10-04T23:11:35.744Z,19.09
2022-10-04T23:14:11.473Z,18.80
2022-10-04T23:16:45.758Z,18.86
2022-10-04T23:19:20.686Z,18.80
2022-10-04T23:21:54.337Z,18.86
2022-10-04T23:24:27.826Z,18.92
2022-10-04T23:27:03.987Z,18.87
2022-10-04T23:29:38.147Z,18.65
2022-10-04T23:32:12.235Z,18.81
2022-10-04T23:34:47.568Z,18.75
2022-10-04T23:37:24.231Z,18.65
2022-10-04T23:39:58.100Z,18.74
2022-10-04T23:42:34.162Z,18.76
2022-10-04T23:45:17.338Z,18.90
2022-10-04T23:47:54.811Z,18.96
2022-10-04T23:50:32.547Z,18.77
2022-10-04T23:53:12.133Z,18.89
2022-10-04T23:55:47.265Z,18.77
2022-10-04T23:58:23.683Z,18.82
